MUCU/SCU METAR and TAF weather

Enter ICAO airport designator
Station Type Date Time Source
MUCU METAR 2019/11/15 04:52 UTC NOAA

MUCU 150452Z 34004KT 9000 FEW020 23/21 Q1015


Station Type Date Time Source
MUCU Decoded METAR 2019/11/15 04:52 UTC NOAA

Santiago De Cuba, Oriente, Cuba (MUCU) 19-58N 075-51W 55M
Nov 14, 2019 - 11:52 PM EST / 2019.11.15 0452 UTC
Wind: from the NNW (340 degrees) at 5 MPH (4 KT):0
Visibility: 5 mile(s):0
Sky conditions: mostly clear
Temperature: 73 F (23 C)
Dew Point: 69 F (21 C)
Relative Humidity: 88%
Pressure (altimeter): 29.97 in. Hg (1015 hPa)
ob: MUCU 150452Z 34004KT 9000 FEW020 23/21 Q1015
cycle: 5

Station Type Date Time Source
MUCU TAF 2019/11/15 06:03 UTC NOAA

TAF MUCU 150500Z 1506/1606 VRB05KT 9000 SCT020 BKN200

Example: see airport list